Terminal Aerodrome Forecast
Issued by NWS

Home | Current Version | Previous Version | Text Only | Print | Product List | Glossary On
Versions: 1 2 3 4 5 6 7 8 9 10 11 12 13 14 15 16 17 18
101
FTPA31 PHFO 230533 AAA
TAFHTO
TAF AMD
PHTO 230533Z 2306/2406 VRB04KT P6SM SCT020 BKN040
     FM231000 23009KT P6SM SCT025
     FM232000 11011KT P6SM VCSH SCT020 BKN040
     FM240000 12010KT 5SM -SHRA BKN020 OVC035
      AMD LTD TO VIS AND WIND=

USA.gov is the U.S. government's official web portal to all federal, state and local government web resources and services.